sensor_id;sensor_type;location;lat;lon;timestamp;P1;durP1;ratioP1;P2;durP2;ratioP2
39782;SDS011;25462;51.164;17.100;2023-02-18T00:02:29;5.70;;;1.50;;
39782;SDS011;25462;51.164;17.100;2023-02-18T00:07:36;3.40;;;1.20;;
39782;SDS011;25462;51.164;17.100;2023-02-18T00:12:41;4.50;;;0.90;;
39782;SDS011;25462;51.164;17.100;2023-02-18T00:17:45;3.80;;;1.20;;
39782;SDS011;25462;51.164;17.100;2023-02-18T00:22:49;2.40;;;0.70;;
39782;SDS011;25462;51.164;17.100;2023-02-18T00:27:53;2.30;;;0.70;;
39782;SDS011;25462;51.164;17.100;2023-02-18T00:32:57;3.10;;;0.60;;
39782;SDS011;25462;51.164;17.100;2023-02-18T00:38:02;2.30;;;0.80;;
39782;SDS011;25462;51.164;17.100;2023-02-18T00:43:06;1.90;;;0.70;;
39782;SDS011;25462;51.164;17.100;2023-02-18T00:48:11;3.50;;;0.70;;
39782;SDS011;25462;51.164;17.100;2023-02-18T00:53:17;3.60;;;0.50;;
39782;SDS011;25462;51.164;17.100;2023-02-18T00:58:21;2.00;;;0.60;;
39782;SDS011;25462;51.164;17.100;2023-02-18T01:03:26;3.70;;;0.80;;
39782;SDS011;25462;51.164;17.100;2023-02-18T01:08:30;2.00;;;0.70;;
39782;SDS011;25462;51.164;17.100;2023-02-18T01:13:34;3.90;;;0.80;;
39782;SDS011;25462;51.164;17.100;2023-02-18T01:18:41;3.60;;;0.70;;
39782;SDS011;25462;51.164;17.100;2023-02-18T01:23:45;3.50;;;1.10;;
39782;SDS011;25462;51.164;17.100;2023-02-18T01:28:51;3.50;;;0.70;;
39782;SDS011;25462;51.164;17.100;2023-02-18T01:33:56;4.80;;;1.00;;
39782;SDS011;25462;51.164;17.100;2023-02-18T01:39:00;2.10;;;0.70;;
39782;SDS011;25462;51.164;17.100;2023-02-18T01:44:24;3.50;;;0.80;;
39782;SDS011;25462;51.164;17.100;2023-02-18T01:49:33;3.30;;;0.60;;
39782;SDS011;25462;51.164;17.100;2023-02-18T01:54:39;2.20;;;0.70;;
39782;SDS011;25462;51.164;17.100;2023-02-18T01:59:46;3.60;;;0.80;;
39782;SDS011;25462;51.164;17.100;2023-02-18T02:04:53;4.30;;;0.80;;
39782;SDS011;25462;51.164;17.100;2023-02-18T02:09:57;3.10;;;0.70;;
39782;SDS011;25462;51.164;17.100;2023-02-18T02:36:12;2.10;;;0.80;;
39782;SDS011;25462;51.164;17.100;2023-02-18T02:47:09;5.50;;;1.40;;
39782;SDS011;25462;51.164;17.100;2023-02-18T02:52:30;3.30;;;0.70;;
39782;SDS011;25462;51.164;17.100;2023-02-18T03:02:50;4.10;;;0.80;;
39782;SDS011;25462;51.164;17.100;2023-02-18T03:08:24;5.20;;;0.80;;
39782;SDS011;25462;51.164;17.100;2023-02-18T03:14:18;3.10;;;0.70;;
39782;SDS011;25462;51.164;17.100;2023-02-18T03:24:57;3.30;;;0.90;;
39782;SDS011;25462;51.164;17.100;2023-02-18T03:30:24;4.80;;;0.70;;
39782;SDS011;25462;51.164;17.100;2023-02-18T03:35:36;4.00;;;0.70;;
39782;SDS011;25462;51.164;17.100;2023-02-18T03:40:40;2.30;;;0.70;;
39782;SDS011;25462;51.164;17.100;2023-02-18T03:45:45;7.80;;;1.00;;
39782;SDS011;25462;51.164;17.100;2023-02-18T03:50:48;2.90;;;0.80;;
39782;SDS011;25462;51.164;17.100;2023-02-18T03:55:52;1.50;;;0.60;;
39782;SDS011;25462;51.164;17.100;2023-02-18T04:00:56;6.20;;;2.40;;
39782;SDS011;25462;51.164;17.100;2023-02-18T04:06:00;2.10;;;0.50;;
39782;SDS011;25462;51.164;17.100;2023-02-18T04:11:04;5.00;;;0.80;;
39782;SDS011;25462;51.164;17.100;2023-02-18T04:16:08;3.90;;;1.10;;
39782;SDS011;25462;51.164;17.100;2023-02-18T04:21:12;3.10;;;0.70;;
39782;SDS011;25462;51.164;17.100;2023-02-18T04:26:16;4.10;;;1.10;;
39782;SDS011;25462;51.164;17.100;2023-02-18T04:31:20;4.50;;;1.00;;
39782;SDS011;25462;51.164;17.100;2023-02-18T04:36:24;3.20;;;0.70;;
39782;SDS011;25462;51.164;17.100;2023-02-18T04:41:28;2.10;;;0.90;;
39782;SDS011;25462;51.164;17.100;2023-02-18T04:46:32;5.70;;;1.00;;
39782;SDS011;25462;51.164;17.100;2023-02-18T04:51:36;3.90;;;0.80;;
39782;SDS011;25462;51.164;17.100;2023-02-18T04:56:40;5.40;;;0.80;;
39782;SDS011;25462;51.164;17.100;2023-02-18T05:01:43;4.60;;;0.90;;
39782;SDS011;25462;51.164;17.100;2023-02-18T05:06:47;3.50;;;0.60;;
39782;SDS011;25462;51.164;17.100;2023-02-18T05:11:51;4.90;;;0.80;;
39782;SDS011;25462;51.164;17.100;2023-02-18T05:16:55;3.80;;;0.80;;
39782;SDS011;25462;51.164;17.100;2023-02-18T05:21:59;4.60;;;0.90;;
39782;SDS011;25462;51.164;17.100;2023-02-18T05:27:02;4.90;;;1.30;;
39782;SDS011;25462;51.164;17.100;2023-02-18T05:32:06;6.50;;;0.80;;
39782;SDS011;25462;51.164;17.100;2023-02-18T05:37:10;6.30;;;1.50;;
39782;SDS011;25462;51.164;17.100;2023-02-18T05:42:15;6.10;;;0.80;;
39782;SDS011;25462;51.164;17.100;2023-02-18T05:47:19;4.80;;;1.00;;
39782;SDS011;25462;51.164;17.100;2023-02-18T05:52:23;3.40;;;0.90;;
39782;SDS011;25462;51.164;17.100;2023-02-18T05:57:27;6.50;;;1.10;;
39782;SDS011;25462;51.164;17.100;2023-02-18T06:02:30;2.60;;;0.60;;
39782;SDS011;25462;51.164;17.100;2023-02-18T06:07:35;2.60;;;0.80;;
39782;SDS011;25462;51.164;17.100;2023-02-18T06:12:39;4.40;;;0.90;;
39782;SDS011;25462;51.164;17.100;2023-02-18T06:17:43;3.60;;;0.70;;
39782;SDS011;25462;51.164;17.100;2023-02-18T06:22:47;2.00;;;0.80;;
39782;SDS011;25462;51.164;17.100;2023-02-18T06:27:51;5.10;;;1.00;;
39782;SDS011;25462;51.164;17.100;2023-02-18T06:32:54;5.90;;;1.00;;
39782;SDS011;25462;51.164;17.100;2023-02-18T06:37:58;2.80;;;0.90;;
39782;SDS011;25462;51.164;17.100;2023-02-18T06:43:02;4.00;;;1.70;;
39782;SDS011;25462;51.164;17.100;2023-02-18T06:48:06;3.90;;;0.70;;
39782;SDS011;25462;51.164;17.100;2023-02-18T06:53:11;3.50;;;1.80;;
39782;SDS011;25462;51.164;17.100;2023-02-18T06:58:15;6.50;;;1.10;;
39782;SDS011;25462;51.164;17.100;2023-02-18T07:03:20;5.40;;;1.00;;
39782;SDS011;25462;51.164;17.100;2023-02-18T07:08:24;4.40;;;1.30;;
39782;SDS011;25462;51.164;17.100;2023-02-18T07:13:27;3.50;;;1.10;;
39782;SDS011;25462;51.164;17.100;2023-02-18T07:18:31;5.20;;;1.40;;
39782;SDS011;25462;51.164;17.100;2023-02-18T07:23:35;3.80;;;0.90;;
39782;SDS011;25462;51.164;17.100;2023-02-18T07:28:39;4.60;;;0.70;;
39782;SDS011;25462;51.164;17.100;2023-02-18T07:33:44;3.90;;;0.90;;
39782;SDS011;25462;51.164;17.100;2023-02-18T07:38:48;7.10;;;1.00;;
39782;SDS011;25462;51.164;17.100;2023-02-18T07:43:52;3.00;;;0.90;;
39782;SDS011;25462;51.164;17.100;2023-02-18T07:48:56;4.80;;;1.00;;
39782;SDS011;25462;51.164;17.100;2023-02-18T07:54:00;6.00;;;0.80;;
39782;SDS011;25462;51.164;17.100;2023-02-18T07:59:04;3.40;;;1.00;;
39782;SDS011;25462;51.164;17.100;2023-02-18T08:04:08;5.10;;;0.90;;
39782;SDS011;25462;51.164;17.100;2023-02-18T08:09:13;3.30;;;0.90;;
39782;SDS011;25462;51.164;17.100;2023-02-18T08:14:17;4.00;;;1.10;;
39782;SDS011;25462;51.164;17.100;2023-02-18T08:19:21;4.00;;;1.20;;
39782;SDS011;25462;51.164;17.100;2023-02-18T08:24:24;4.60;;;1.50;;
39782;SDS011;25462;51.164;17.100;2023-02-18T08:29:28;5.30;;;1.00;;
39782;SDS011;25462;51.164;17.100;2023-02-18T08:34:32;3.40;;;0.80;;
39782;SDS011;25462;51.164;17.100;2023-02-18T08:39:37;2.30;;;0.70;;
39782;SDS011;25462;51.164;17.100;2023-02-18T08:44:42;3.20;;;0.80;;
39782;SDS011;25462;51.164;17.100;2023-02-18T08:49:46;1.90;;;0.80;;
39782;SDS011;25462;51.164;17.100;2023-02-18T08:54:50;2.00;;;0.60;;
39782;SDS011;25462;51.164;17.100;2023-02-18T08:59:54;2.70;;;0.80;;
39782;SDS011;25462;51.164;17.100;2023-02-18T09:04:59;1.70;;;0.50;;
39782;SDS011;25462;51.164;17.100;2023-02-18T09:10:03;2.80;;;1.00;;
39782;SDS011;25462;51.164;17.100;2023-02-18T09:15:07;4.30;;;0.90;;
39782;SDS011;25462;51.164;17.100;2023-02-18T09:20:11;2.10;;;0.80;;
39782;SDS011;25462;51.164;17.100;2023-02-18T09:25:18;2.70;;;1.20;;
39782;SDS011;25462;51.164;17.100;2023-02-18T09:30:22;5.50;;;0.80;;
39782;SDS011;25462;51.164;17.100;2023-02-18T09:35:26;4.70;;;0.60;;
39782;SDS011;25462;51.164;17.100;2023-02-18T09:40:31;1.80;;;0.40;;
39782;SDS011;25462;51.164;17.100;2023-02-18T09:45:35;4.10;;;1.80;;
39782;SDS011;25462;51.164;17.100;2023-02-18T09:50:40;4.40;;;0.90;;
39782;SDS011;25462;51.164;17.100;2023-02-18T09:55:44;3.80;;;0.70;;
39782;SDS011;25462;51.164;17.100;2023-02-18T10:00:50;4.70;;;0.90;;
39782;SDS011;25462;51.164;17.100;2023-02-18T10:05:58;2.70;;;0.90;;
39782;SDS011;25462;51.164;17.100;2023-02-18T10:16:51;5.70;;;1.70;;
39782;SDS011;25462;51.164;17.100;2023-02-18T10:21:56;3.70;;;0.80;;
39782;SDS011;25462;51.164;17.100;2023-02-18T10:27:01;3.30;;;0.90;;
39782;SDS011;25462;51.164;17.100;2023-02-18T10:32:21;5.00;;;0.90;;
39782;SDS011;25462;51.164;17.100;2023-02-18T10:53:40;5.60;;;1.20;;
39782;SDS011;25462;51.164;17.100;2023-02-18T10:58:45;4.80;;;1.30;;
39782;SDS011;25462;51.164;17.100;2023-02-18T11:03:50;4.80;;;1.20;;
39782;SDS011;25462;51.164;17.100;2023-02-18T11:08:56;4.90;;;1.10;;
39782;SDS011;25462;51.164;17.100;2023-02-18T11:14:01;8.00;;;1.90;;
39782;SDS011;25462;51.164;17.100;2023-02-18T11:24:37;8.80;;;2.80;;
39782;SDS011;25462;51.164;17.100;2023-02-18T11:29:42;5.20;;;1.40;;
39782;SDS011;25462;51.164;17.100;2023-02-18T11:34:46;10.40;;;1.60;;
39782;SDS011;25462;51.164;17.100;2023-02-18T11:39:52;4.30;;;1.40;;
39782;SDS011;25462;51.164;17.100;2023-02-18T11:44:58;8.30;;;1.40;;
39782;SDS011;25462;51.164;17.100;2023-02-18T11:55:32;4.40;;;1.50;;
39782;SDS011;25462;51.164;17.100;2023-02-18T12:05:42;9.40;;;3.60;;
39782;SDS011;25462;51.164;17.100;2023-02-18T12:10:51;6.50;;;2.50;;
39782;SDS011;25462;51.164;17.100;2023-02-18T12:32:09;7.60;;;3.10;;
39782;SDS011;25462;51.164;17.100;2023-02-18T12:43:13;9.90;;;3.90;;
39782;SDS011;25462;51.164;17.100;2023-02-18T12:54:31;13.70;;;4.60;;
39782;SDS011;25462;51.164;17.100;2023-02-18T13:05:17;13.50;;;5.30;;
39782;SDS011;25462;51.164;17.100;2023-02-18T13:10:50;12.50;;;5.20;;
39782;SDS011;25462;51.164;17.100;2023-02-18T13:16:11;11.90;;;4.30;;
39782;SDS011;25462;51.164;17.100;2023-02-18T13:21:18;13.50;;;5.80;;
39782;SDS011;25462;51.164;17.100;2023-02-18T13:26:22;12.40;;;5.60;;
39782;SDS011;25462;51.164;17.100;2023-02-18T13:37:33;11.40;;;6.90;;
39782;SDS011;25462;51.164;17.100;2023-02-18T13:42:35;13.80;;;7.00;;
39782;SDS011;25462;51.164;17.100;2023-02-18T13:47:41;17.00;;;9.50;;
39782;SDS011;25462;51.164;17.100;2023-02-18T13:52:50;40.50;;;23.80;;
39782;SDS011;25462;51.164;17.100;2023-02-18T13:57:55;14.90;;;7.90;;
39782;SDS011;25462;51.164;17.100;2023-02-18T14:03:00;17.70;;;7.90;;
39782;SDS011;25462;51.164;17.100;2023-02-18T14:14:12;13.20;;;7.00;;
39782;SDS011;25462;51.164;17.100;2023-02-18T14:19:26;15.30;;;7.60;;
39782;SDS011;25462;51.164;17.100;2023-02-18T14:41:27;17.30;;;8.30;;
39782;SDS011;25462;51.164;17.100;2023-02-18T14:46:50;11.00;;;6.80;;
39782;SDS011;25462;51.164;17.100;2023-02-18T14:52:00;21.40;;;7.60;;
39782;SDS011;25462;51.164;17.100;2023-02-18T14:57:06;22.80;;;9.40;;
39782;SDS011;25462;51.164;17.100;2023-02-18T15:02:17;20.20;;;8.80;;
39782;SDS011;25462;51.164;17.100;2023-02-18T15:07:24;19.70;;;9.00;;
39782;SDS011;25462;51.164;17.100;2023-02-18T15:12:28;14.20;;;7.70;;
39782;SDS011;25462;51.164;17.100;2023-02-18T15:17:32;19.90;;;7.40;;
39782;SDS011;25462;51.164;17.100;2023-02-18T15:22:38;14.90;;;6.40;;
39782;SDS011;25462;51.164;17.100;2023-02-18T15:28:00;14.90;;;7.80;;
39782;SDS011;25462;51.164;17.100;2023-02-18T15:33:09;9.50;;;5.30;;
39782;SDS011;25462;51.164;17.100;2023-02-18T15:38:16;11.30;;;5.50;;
39782;SDS011;25462;51.164;17.100;2023-02-18T15:43:22;4.80;;;2.30;;
39782;SDS011;25462;51.164;17.100;2023-02-18T15:53:48;4.70;;;2.30;;
39782;SDS011;25462;51.164;17.100;2023-02-18T15:59:07;3.40;;;1.80;;
39782;SDS011;25462;51.164;17.100;2023-02-18T16:04:22;3.30;;;1.80;;
39782;SDS011;25462;51.164;17.100;2023-02-18T16:09:32;4.30;;;1.60;;
39782;SDS011;25462;51.164;17.100;2023-02-18T16:15:20;4.00;;;2.60;;
39782;SDS011;25462;51.164;17.100;2023-02-18T16:30:50;5.50;;;1.50;;
39782;SDS011;25462;51.164;17.100;2023-02-18T16:35:56;2.10;;;1.20;;
39782;SDS011;25462;51.164;17.100;2023-02-18T16:41:00;2.60;;;1.60;;
39782;SDS011;25462;51.164;17.100;2023-02-18T16:46:13;2.90;;;1.40;;
39782;SDS011;25462;51.164;17.100;2023-02-18T16:51:29;2.20;;;1.20;;
39782;SDS011;25462;51.164;17.100;2023-02-18T16:56:34;3.10;;;1.40;;
39782;SDS011;25462;51.164;17.100;2023-02-18T17:01:41;4.30;;;1.30;;
39782;SDS011;25462;51.164;17.100;2023-02-18T17:06:49;2.30;;;1.00;;
39782;SDS011;25462;51.164;17.100;2023-02-18T17:11:54;2.40;;;1.20;;
39782;SDS011;25462;51.164;17.100;2023-02-18T17:17:04;3.20;;;1.20;;
39782;SDS011;25462;51.164;17.100;2023-02-18T17:22:12;1.50;;;0.80;;
39782;SDS011;25462;51.164;17.100;2023-02-18T17:27:17;2.70;;;1.20;;
39782;SDS011;25462;51.164;17.100;2023-02-18T17:32:25;3.20;;;1.00;;
39782;SDS011;25462;51.164;17.100;2023-02-18T17:37:32;2.80;;;1.20;;
39782;SDS011;25462;51.164;17.100;2023-02-18T17:42:37;2.50;;;1.40;;
39782;SDS011;25462;51.164;17.100;2023-02-18T17:47:42;2.50;;;1.10;;
39782;SDS011;25462;51.164;17.100;2023-02-18T17:52:47;3.90;;;1.30;;
39782;SDS011;25462;51.164;17.100;2023-02-18T17:57:57;2.50;;;1.30;;
39782;SDS011;25462;51.164;17.100;2023-02-18T18:03:03;2.70;;;1.40;;
39782;SDS011;25462;51.164;17.100;2023-02-18T18:08:11;4.40;;;1.60;;
39782;SDS011;25462;51.164;17.100;2023-02-18T18:13:22;3.80;;;1.60;;
39782;SDS011;25462;51.164;17.100;2023-02-18T18:18:29;2.30;;;1.40;;
39782;SDS011;25462;51.164;17.100;2023-02-18T18:23:45;3.50;;;1.50;;
39782;SDS011;25462;51.164;17.100;2023-02-18T18:28:53;4.10;;;1.40;;
39782;SDS011;25462;51.164;17.100;2023-02-18T18:34:01;4.10;;;1.80;;
39782;SDS011;25462;51.164;17.100;2023-02-18T18:39:14;3.20;;;1.80;;
39782;SDS011;25462;51.164;17.100;2023-02-18T18:44:20;2.60;;;1.60;;
39782;SDS011;25462;51.164;17.100;2023-02-18T18:49:30;5.00;;;2.60;;
39782;SDS011;25462;51.164;17.100;2023-02-18T18:54:38;3.80;;;2.60;;
39782;SDS011;25462;51.164;17.100;2023-02-18T18:59:46;2.40;;;1.10;;
39782;SDS011;25462;51.164;17.100;2023-02-18T19:04:51;1.90;;;0.80;;
39782;SDS011;25462;51.164;17.100;2023-02-18T19:09:58;3.90;;;1.00;;
39782;SDS011;25462;51.164;17.100;2023-02-18T19:15:04;1.60;;;0.70;;
39782;SDS011;25462;51.164;17.100;2023-02-18T19:20:20;1.10;;;0.60;;
39782;SDS011;25462;51.164;17.100;2023-02-18T19:25:29;1.70;;;0.60;;
39782;SDS011;25462;51.164;17.100;2023-02-18T19:30:35;2.40;;;0.60;;
39782;SDS011;25462;51.164;17.100;2023-02-18T19:35:41;1.70;;;0.60;;
39782;SDS011;25462;51.164;17.100;2023-02-18T19:40:48;1.80;;;0.60;;
39782;SDS011;25462;51.164;17.100;2023-02-18T19:45:56;1.20;;;0.70;;
39782;SDS011;25462;51.164;17.100;2023-02-18T19:51:06;2.00;;;0.90;;
39782;SDS011;25462;51.164;17.100;2023-02-18T19:56:21;2.90;;;1.70;;
39782;SDS011;25462;51.164;17.100;2023-02-18T20:01:30;2.20;;;1.00;;
39782;SDS011;25462;51.164;17.100;2023-02-18T20:06:38;1.60;;;0.90;;
39782;SDS011;25462;51.164;17.100;2023-02-18T20:11:44;2.10;;;1.20;;
39782;SDS011;25462;51.164;17.100;2023-02-18T20:16:52;4.30;;;1.50;;
39782;SDS011;25462;51.164;17.100;2023-02-18T20:21:59;3.30;;;1.50;;
39782;SDS011;25462;51.164;17.100;2023-02-18T20:27:06;2.80;;;1.40;;
39782;SDS011;25462;51.164;17.100;2023-02-18T20:32:18;3.30;;;1.30;;
39782;SDS011;25462;51.164;17.100;2023-02-18T20:37:25;2.70;;;1.40;;
39782;SDS011;25462;51.164;17.100;2023-02-18T20:42:34;2.90;;;1.60;;
39782;SDS011;25462;51.164;17.100;2023-02-18T20:47:43;2.90;;;1.40;;
39782;SDS011;25462;51.164;17.100;2023-02-18T20:52:50;2.90;;;1.60;;
39782;SDS011;25462;51.164;17.100;2023-02-18T20:57:55;3.00;;;1.50;;
39782;SDS011;25462;51.164;17.100;2023-02-18T21:03:01;2.60;;;1.20;;
39782;SDS011;25462;51.164;17.100;2023-02-18T21:08:09;3.10;;;1.80;;
39782;SDS011;25462;51.164;17.100;2023-02-18T21:13:19;4.30;;;1.80;;
39782;SDS011;25462;51.164;17.100;2023-02-18T21:18:31;5.50;;;2.30;;
39782;SDS011;25462;51.164;17.100;2023-02-18T21:23:37;4.00;;;2.40;;
39782;SDS011;25462;51.164;17.100;2023-02-18T21:28:46;5.30;;;2.70;;
39782;SDS011;25462;51.164;17.100;2023-02-18T21:33:53;4.00;;;2.70;;
39782;SDS011;25462;51.164;17.100;2023-02-18T21:39:03;6.00;;;2.80;;
39782;SDS011;25462;51.164;17.100;2023-02-18T21:44:11;5.60;;;2.80;;
39782;SDS011;25462;51.164;17.100;2023-02-18T21:49:19;4.10;;;2.40;;
39782;SDS011;25462;51.164;17.100;2023-02-18T21:54:32;4.10;;;2.40;;
39782;SDS011;25462;51.164;17.100;2023-02-18T21:59:48;4.60;;;2.30;;
39782;SDS011;25462;51.164;17.100;2023-02-18T22:04:55;4.80;;;2.60;;
39782;SDS011;25462;51.164;17.100;2023-02-18T22:09:59;5.20;;;2.70;;
39782;SDS011;25462;51.164;17.100;2023-02-18T22:15:02;5.40;;;2.70;;
39782;SDS011;25462;51.164;17.100;2023-02-18T22:20:07;4.10;;;2.10;;
39782;SDS011;25462;51.164;17.100;2023-02-18T22:25:11;4.60;;;2.30;;
39782;SDS011;25462;51.164;17.100;2023-02-18T22:30:16;4.00;;;2.30;;
39782;SDS011;25462;51.164;17.100;2023-02-18T22:35:21;5.20;;;3.60;;
39782;SDS011;25462;51.164;17.100;2023-02-18T22:40:25;4.60;;;2.90;;
39782;SDS011;25462;51.164;17.100;2023-02-18T22:45:34;5.50;;;3.20;;
39782;SDS011;25462;51.164;17.100;2023-02-18T22:50:40;5.10;;;3.10;;
39782;SDS011;25462;51.164;17.100;2023-02-18T22:55:44;5.70;;;3.70;;
39782;SDS011;25462;51.164;17.100;2023-02-18T23:00:48;5.80;;;3.40;;
39782;SDS011;25462;51.164;17.100;2023-02-18T23:06:02;6.10;;;3.70;;
39782;SDS011;25462;51.164;17.100;2023-02-18T23:11:08;8.30;;;4.30;;
39782;SDS011;25462;51.164;17.100;2023-02-18T23:16:14;7.20;;;4.80;;
39782;SDS011;25462;51.164;17.100;2023-02-18T23:21:21;6.60;;;4.00;;
39782;SDS011;25462;51.164;17.100;2023-02-18T23:26:25;5.40;;;3.50;;
39782;SDS011;25462;51.164;17.100;2023-02-18T23:36:41;6.20;;;3.70;;
39782;SDS011;25462;51.164;17.100;2023-02-18T23:41:53;5.60;;;3.20;;
39782;SDS011;25462;51.164;17.100;2023-02-18T23:46:58;7.70;;;4.10;;
39782;SDS011;25462;51.164;17.100;2023-02-18T23:52:02;5.60;;;3.50;;
39782;SDS011;25462;51.164;17.100;2023-02-18T23:57:06;6.10;;;3.60;;
